Time;durP1;ratioP1;P1;durP2;ratioP2;P2;SDS_P1;SDS_P2;PMS_P1;PMS_P2;Temp;Humidity;BMP_temperature;BMP_pressure;BME280_temperature;BME280_humidity;BME280_pressure;Samples;Min_cycle;Max_cycle;Signal;HPM_P1;HPM_P2
2021/10/05 00:07:26;;;;;;;7.45;1.35;;;20.30;65.50;;;;;;20850410;28;20581;-61
2021/10/05 00:17:27;;;;;;;1.03;0.50;;;20.30;65.40;;;;;;20833861;28;20458;-61
2021/10/05 00:27:27;;;;;;;1.23;0.53;;;20.30;65.40;;;;;;20824510;28;20014;-61
2021/10/05 00:37:28;;;;;;;1.00;0.60;;;20.30;65.20;;;;;;20831647;28;20456;-61
2021/10/05 00:47:28;;;;;;;3.38;0.90;;;20.20;65.10;;;;;;20823410;28;20034;-61
2021/10/05 00:57:29;;;;;;;1.70;0.60;;;20.20;64.80;;;;;;20822755;28;20649;-59
2021/10/05 01:07:29;;;;;;;0.70;0.43;;;20.20;64.80;;;;;;20833162;28;20033;-60
2021/10/05 01:17:30;;;;;;;1.88;0.60;;;20.10;64.60;;;;;;20821351;28;20029;-60
2021/10/05 01:27:30;;;;;;;1.77;0.73;;;20.10;64.50;;;;;;20820621;28;20438;-60
2021/10/05 01:37:31;;;;;;;2.47;0.60;;;20.10;64.50;;;;;;20819673;28;20986;-58
2021/10/05 01:47:32;;;;;;;1.13;0.43;;;20.10;64.30;;;;;;20818917;28;20505;-59
2021/10/05 01:57:33;;;;;;;1.33;0.50;;;20.00;64.30;;;;;;20818842;28;20108;-58
2021/10/05 02:07:35;;;;;;;4.20;0.93;;;20.00;64.00;;;;;;20832193;28;20026;-60
2021/10/05 02:17:36;;;;;;;2.53;0.50;;;20.00;63.90;;;;;;20871338;28;20039;-60
2021/10/05 02:27:36;;;;;;;1.75;0.40;;;20.00;63.90;;;;;;20874063;28;20033;-60
2021/10/05 02:37:38;;;;;;;2.23;0.50;;;20.00;63.80;;;;;;20882170;28;20052;-60
2021/10/05 02:47:39;;;;;;;1.52;0.60;;;20.00;63.90;;;;;;20872092;28;20036;-59
2021/10/05 02:57:39;;;;;;;1.98;0.52;;;19.90;63.50;;;;;;20869103;28;20029;-60
2021/10/05 03:07:40;;;;;;;1.48;0.60;;;19.90;63.50;;;;;;20847963;28;20029;-60
2021/10/05 03:17:41;;;;;;;1.88;0.60;;;19.90;63.40;;;;;;20834540;28;20057;-60
2021/10/05 03:27:42;;;;;;;3.05;0.50;;;19.90;63.50;;;;;;20829797;28;20034;-58
2021/10/05 03:37:42;;;;;;;1.88;0.75;;;19.90;63.60;;;;;;20911511;28;20541;-58
2021/10/05 03:47:43;;;;;;;2.03;0.45;;;19.90;63.50;;;;;;20910000;28;20036;-58
2021/10/05 03:57:43;;;;;;;0.93;0.45;;;19.90;63.40;;;;;;20909163;28;20091;-58
2021/10/05 04:07:44;;;;;;;3.17;1.00;;;19.90;63.30;;;;;;20863425;28;20487;-58
2021/10/05 04:17:44;;;;;;;3.15;0.45;;;19.90;63.80;;;;;;20851835;28;20102;-58
2021/10/05 04:27:45;;;;;;;2.40;0.60;;;19.80;63.10;;;;;;20868278;28;20029;-58
2021/10/05 04:37:46;;;;;;;2.05;0.90;;;19.80;63.10;;;;;;20867265;28;20506;-59
2021/10/05 04:47:46;;;;;;;1.50;0.60;;;19.80;63.10;;;;;;20870256;28;20090;-57
2021/10/05 04:57:47;;;;;;;3.75;0.70;;;19.80;63.10;;;;;;20886801;28;20500;-59
2021/10/05 05:07:47;;;;;;;2.50;0.70;;;19.80;63.10;;;;;;20899083;28;20048;-59
2021/10/05 05:17:48;;;;;;;2.00;0.60;;;19.80;62.90;;;;;;20882128;28;20056;-60
2021/10/05 05:27:48;;;;;;;9.30;0.88;;;19.80;62.30;;;;;;20862459;28;20503;-58
2021/10/05 05:37:49;;;;;;;3.75;1.02;;;19.90;61.90;;;;;;20891695;28;20033;-59
2021/10/05 05:47:50;;;;;;;11.97;3.37;;;20.10;61.80;;;;;;20863381;28;20033;-57
2021/10/05 05:57:52;;;;;;;15.02;2.55;;;20.20;61.60;;;;;;20893744;28;20094;-58
2021/10/05 06:07:53;;;;;;;8.20;2.22;;;20.30;61.90;;;;;;20825563;28;20033;-59
2021/10/05 06:17:54;;;;;;;6.13;2.25;;;20.30;62.30;;;;;;20853285;28;20497;-55
2021/10/05 06:27:58;;;;;;;11.95;2.60;;;20.40;61.60;;;;;;20865407;28;20112;-58
2021/10/05 06:38:00;;;;;;;5.85;2.08;;;20.50;61.40;;;;;;20846318;28;20029;-57
2021/10/05 06:48:01;;;;;;;9.25;1.73;;;20.60;61.30;;;;;;20873413;28;20029;-59
2021/10/05 06:58:01;;;;;;;6.65;1.25;;;20.70;61.20;;;;;;20864534;28;20044;-60
2021/10/05 07:08:06;;;;;;;9.30;1.80;;;20.80;60.90;;;;;;20909217;28;20611;-58
2021/10/05 07:18:07;;;;;;;10.38;1.25;;;20.80;61.00;;;;;;20870105;28;20029;-60
2021/10/05 07:28:10;;;;;;;10.73;1.85;;;20.80;61.00;;;;;;20859538;28;20080;-59
2021/10/05 07:38:11;;;;;;;10.35;2.20;;;20.80;60.80;;;;;;20857085;28;20102;-60
2021/10/05 07:48:12;;;;;;;10.45;2.03;;;20.80;60.60;;;;;;20827024;28;20034;-59
2021/10/05 07:58:12;;;;;;;4.60;1.63;;;20.80;60.50;;;;;;20865773;28;20036;-59
2021/10/05 08:08:13;;;;;;;11.57;2.60;;;20.80;60.50;;;;;;20842643;28;20549;-58
2021/10/05 08:18:13;;;;;;;15.98;3.40;;;20.80;60.60;;;;;;20870752;28;20554;-60
2021/10/05 08:28:14;;;;;;;19.15;2.53;;;20.80;60.70;;;;;;20865046;28;20089;-59
2021/10/05 08:38:14;;;;;;;17.20;2.73;;;20.80;60.20;;;;;;20877769;28;20044;-61
2021/10/05 08:48:15;;;;;;;14.98;3.03;;;20.80;60.70;;;;;;20862878;28;20033;-61
2021/10/05 08:58:16;;;;;;;24.42;2.70;;;20.80;60.70;;;;;;20857051;28;20029;-59
2021/10/05 09:08:24;;;;;;;24.02;4.03;;;20.80;60.80;;;;;;20890575;28;20032;-60
2021/10/05 09:18:25;;;;;;;12.83;2.00;;;20.80;60.90;;;;;;20862185;28;20094;-60
2021/10/05 09:28:32;;;;;;;12.43;1.48;;;20.80;60.80;;;;;;20852352;28;20472;-56
2021/10/05 09:38:33;;;;;;;12.43;2.27;;;20.80;60.50;;;;;;20872924;28;20408;-59
2021/10/05 09:48:33;;;;;;;12.98;1.75;;;20.80;60.30;;;;;;20864093;28;20079;-59
2021/10/05 09:58:34;;;;;;;8.20;1.63;;;20.80;60.20;;;;;;20844605;28;20507;-59
2021/10/05 10:08:36;;;;;;;15.38;1.58;;;20.90;60.30;;;;;;20866110;28;20535;-60
2021/10/05 10:18:48;;;;;;;10.93;2.58;;;20.90;60.30;;;;;;20861123;28;20032;-58
2021/10/05 10:28:58;;;;;;;7.65;1.52;;;20.90;60.40;;;;;;20892922;28;20036;-60
2021/10/05 10:39:19;;;;;;;8.13;1.50;;;20.90;60.30;;;;;;20895009;28;20112;-60
2021/10/05 10:49:20;;;;;;;6.07;1.90;;;21.00;60.40;;;;;;20875930;28;20030;-59
2021/10/05 10:59:26;;;;;;;8.25;1.35;;;21.00;60.20;;;;;;20878904;28;20044;-59
2021/10/05 11:09:31;;;;;;;8.10;2.22;;;20.90;60.10;;;;;;20869065;28;20033;-60
2021/10/05 11:19:34;;;;;;;7.22;0.90;;;21.00;60.10;;;;;;20858486;28;20037;-61
2021/10/05 11:29:35;;;;;;;8.45;1.13;;;21.00;60.00;;;;;;20862563;28;20044;-60
2021/10/05 11:39:37;;;;;;;24.20;2.28;;;21.00;60.10;;;;;;20870081;28;20021;-58
2021/10/05 11:49:51;;;;;;;13.60;1.50;;;21.00;60.00;;;;;;20894175;28;20059;-61
2021/10/05 11:59:54;;;;;;;7.68;1.50;;;21.00;59.80;;;;;;20866109;28;20072;-61
2021/10/05 12:10:01;;;;;;;12.73;2.17;;;21.00;58.60;;;;;;20863896;28;20035;-59
2021/10/05 12:20:12;;;;;;;13.00;1.98;;;21.00;58.60;;;;;;20898235;28;20060;-58
2021/10/05 12:30:15;;;;;;;10.60;1.00;;;20.90;57.80;;;;;;20887854;28;20032;-57
2021/10/05 12:40:16;;;;;;;10.07;1.48;;;20.90;58.30;;;;;;20865683;28;20490;-59
2021/10/05 12:50:18;;;;;;;6.35;1.20;;;20.90;58.20;;;;;;20851421;28;20060;-57
2021/10/05 13:00:20;;;;;;;3.40;1.42;;;20.90;57.50;;;;;;20882741;28;20373;-56
2021/10/05 13:10:22;;;;;;;2.67;0.73;;;21.00;57.60;;;;;;20883530;28;20033;-57
2021/10/05 13:20:23;;;;;;;3.63;0.70;;;20.90;57.90;;;;;;20874399;28;20044;-58
2021/10/05 13:30:24;;;;;;;2.17;0.68;;;21.00;57.70;;;;;;20862180;28;20025;-59
2021/10/05 13:40:26;;;;;;;3.47;0.60;;;20.90;57.70;;;;;;20865382;28;20044;-60
2021/10/05 13:50:27;;;;;;;3.25;0.43;;;21.00;57.40;;;;;;20845011;28;20029;-57
2021/10/05 14:00:27;;;;;;;2.87;0.53;;;21.00;57.20;;;;;;20856843;28;20039;-60
2021/10/05 14:10:28;;;;;;;1.77;0.47;;;20.90;57.00;;;;;;20823407;28;20057;-59
2021/10/05 14:20:29;;;;;;;0.85;0.40;;;20.90;57.10;;;;;;20837805;28;20121;-57
2021/10/05 14:30:30;;;;;;;1.00;0.50;;;20.90;57.00;;;;;;20817911;28;20125;-60
2021/10/05 14:40:30;;;;;;;0.95;0.40;;;20.90;56.10;;;;;;20839946;28;20407;-60
2021/10/05 14:50:31;;;;;;;8.57;1.10;;;20.80;56.00;;;;;;20872794;28;20041;-60
2021/10/05 15:00:31;;;;;;;0.90;0.43;;;20.80;55.30;;;;;;20868223;28;20037;-60
2021/10/05 15:10:32;;;;;;;2.40;0.50;;;20.80;55.20;;;;;;20859286;28;20033;-60
2021/10/05 15:20:33;;;;;;;2.05;0.50;;;20.80;55.20;;;;;;20884415;28;20048;-59
2021/10/05 15:30:33;;;;;;;1.25;0.70;;;20.80;55.10;;;;;;20869628;28;20447;-58
2021/10/05 15:40:45;;;;;;;1.88;0.60;;;20.80;55.00;;;;;;20861327;28;20032;-59
2021/10/05 15:50:57;;;;;;;0.82;0.55;;;20.80;54.80;;;;;;20864693;28;20124;-60
2021/10/05 16:00:58;;;;;;;2.70;1.10;;;20.80;54.70;;;;;;20874034;28;20552;-59
2021/10/05 16:10:59;;;;;;;3.10;1.13;;;20.80;54.60;;;;;;20894708;28;20388;-60
2021/10/05 16:21:00;;;;;;;2.55;1.10;;;20.80;55.00;;;;;;20883739;28;20028;-60
2021/10/05 16:31:00;;;;;;;4.25;0.60;;;20.80;54.70;;;;;;20872113;28;20029;-58
2021/10/05 16:41:01;;;;;;;4.00;0.60;;;20.80;55.10;;;;;;20879616;28;20492;-59
2021/10/05 16:51:02;;;;;;;4.57;1.27;;;20.80;55.70;;;;;;20886612;28;20060;-60
2021/10/05 17:01:03;;;;;;;5.50;0.75;;;20.90;55.90;;;;;;20879134;28;20030;-59
2021/10/05 17:11:04;;;;;;;2.75;1.05;;;20.90;56.10;;;;;;20865818;28;20036;-57
2021/10/05 17:21:04;;;;;;;6.47;0.73;;;20.90;56.40;;;;;;20859144;28;20057;-59
2021/10/05 17:31:05;;;;;;;3.60;0.60;;;20.90;56.40;;;;;;20840307;28;20129;-58
2021/10/05 17:41:05;;;;;;;1.02;0.55;;;20.90;56.60;;;;;;20847451;28;20033;-60
2021/10/05 17:51:06;;;;;;;2.60;0.73;;;20.90;56.70;;;;;;20842422;28;20029;-58
2021/10/05 18:01:07;;;;;;;1.33;0.63;;;20.90;56.70;;;;;;20854851;28;20545;-57
2021/10/05 18:11:07;;;;;;;1.80;0.88;;;20.90;56.90;;;;;;20861582;28;20021;-60
2021/10/05 18:21:08;;;;;;;2.55;0.80;;;20.90;56.90;;;;;;20878658;28;20032;-55
2021/10/05 18:31:09;;;;;;;1.98;0.77;;;21.00;56.80;;;;;;20875725;28;20118;-59
2021/10/05 18:41:09;;;;;;;5.90;1.13;;;21.00;56.60;;;;;;20830539;28;20036;-59
2021/10/05 18:51:10;;;;;;;1.80;1.08;;;21.00;56.90;;;;;;20828798;28;20492;-59
2021/10/05 19:01:11;;;;;;;2.75;1.08;;;20.90;56.80;;;;;;20865577;28;20111;-60
2021/10/05 19:11:11;;;;;;;1.40;0.70;;;20.90;57.10;;;;;;20869080;28;20087;-59
2021/10/05 19:21:12;;;;;;;4.72;1.00;;;20.90;57.00;;;;;;20851505;28;20061;-60
2021/10/05 19:31:13;;;;;;;2.53;1.13;;;20.90;56.50;;;;;;20794106;28;20050;-60
2021/10/05 19:41:15;;;;;;;9.15;1.85;;;20.80;55.90;;;;;;20780426;28;20542;-57
2021/10/05 19:51:15;;;;;;;17.20;2.65;;;20.70;56.70;;;;;;20800739;28;20049;-57
2021/10/05 20:01:16;;;;;;;3.85;1.67;;;20.80;57.60;;;;;;20810502;28;20041;-60
2021/10/05 20:11:18;;;;;;;4.78;1.48;;;20.70;56.10;;;;;;20780968;28;20084;-60
2021/10/05 20:21:19;;;;;;;3.08;1.52;;;20.60;57.40;;;;;;20816927;28;20021;-59
2021/10/05 20:31:20;;;;;;;2.50;1.17;;;20.50;57.40;;;;;;20815651;28;20096;-60
2021/10/05 20:41:20;;;;;;;1.88;1.10;;;20.40;57.80;;;;;;20813677;28;20488;-54
2021/10/05 20:51:23;;;;;;;2.13;1.05;;;20.30;56.50;;;;;;20812631;28;20120;-55
2021/10/05 21:01:24;;;;;;;2.85;1.15;;;20.20;57.30;;;;;;20809702;28;20025;-56
2021/10/05 21:11:25;;;;;;;4.17;1.23;;;20.10;57.50;;;;;;20811917;28;20040;-57
2021/10/05 21:21:25;;;;;;;2.90;1.25;;;20.10;56.40;;;;;;20813448;28;20099;-55
2021/10/05 21:31:26;;;;;;;7.55;1.83;;;19.90;57.90;;;;;;20769272;28;20041;-53
2021/10/05 21:41:27;;;;;;;2.42;1.50;;;20.00;59.00;;;;;;20794618;28;20049;-59
2021/10/05 21:51:27;;;;;;;5.60;1.75;;;20.10;60.00;;;;;;20778403;28;20030;-59
2021/10/05 22:01:29;;;;;;;3.25;0.90;;;20.10;60.90;;;;;;20780849;28;20484;-60
2021/10/05 22:11:29;;;;;;;3.45;1.10;;;20.20;61.30;;;;;;20788242;28;20045;-60
2021/10/05 22:21:30;;;;;;;6.30;1.10;;;20.10;61.70;;;;;;20785340;28;20477;-60
2021/10/05 22:31:32;;;;;;;2.28;0.93;;;20.10;61.80;;;;;;20793494;28;20060;-59
2021/10/05 22:41:33;;;;;;;3.17;1.80;;;20.10;62.60;;;;;;20793432;28;20029;-59
2021/10/05 22:51:36;;;;;;;2.88;0.95;;;20.10;62.40;;;;;;20797129;28;20042;-59
2021/10/05 23:01:36;;;;;;;7.22;1.00;;;20.00;63.00;;;;;;20801312;28;20029;-60
2021/10/05 23:11:37;;;;;;;3.75;1.45;;;20.00;63.30;;;;;;20800580;28;20040;-59
2021/10/05 23:21:37;;;;;;;1.52;0.70;;;20.00;63.00;;;;;;20791420;28;20536;-59
2021/10/05 23:31:38;;;;;;;1.25;0.60;;;19.90;62.90;;;;;;20790310;28;20030;-59
2021/10/05 23:41:38;;;;;;;2.15;0.82;;;19.90;63.20;;;;;;20810990;28;20061;-60
2021/10/05 23:51:39;;;;;;;2.53;0.77;;;19.90;63.20;;;;;;20828276;28;20370;-60
